sensor_id;sensor_type;location;lat;lon;timestamp;temperature;humidity
53776;DHT22;44276;49.534;6.378;2023-06-26T00:01:29;15.40;99.90
53776;DHT22;44276;49.534;6.378;2023-06-26T00:04:00;15.40;99.90
53776;DHT22;44276;49.534;6.378;2023-06-26T00:06:29;15.40;99.90
53776;DHT22;44276;49.534;6.378;2023-06-26T00:08:58;15.40;99.90
53776;DHT22;44276;49.534;6.378;2023-06-26T00:11:26;15.40;99.90
53776;DHT22;44276;49.534;6.378;2023-06-26T00:13:59;15.20;99.90
53776;DHT22;44276;49.534;6.378;2023-06-26T00:16:28;15.20;99.90
53776;DHT22;44276;49.534;6.378;2023-06-26T00:18:58;15.30;99.90
53776;DHT22;44276;49.534;6.378;2023-06-26T00:21:26;15.20;99.90
53776;DHT22;44276;49.534;6.378;2023-06-26T00:23:55;15.10;99.90
53776;DHT22;44276;49.534;6.378;2023-06-26T00:26:23;15.10;99.90
53776;DHT22;44276;49.534;6.378;2023-06-26T00:28:51;15.20;99.90
53776;DHT22;44276;49.534;6.378;2023-06-26T00:31:21;15.10;99.90
53776;DHT22;44276;49.534;6.378;2023-06-26T00:33:49;15.00;99.90
53776;DHT22;44276;49.534;6.378;2023-06-26T00:36:18;15.00;99.90
53776;DHT22;44276;49.534;6.378;2023-06-26T00:38:46;15.00;99.90
53776;DHT22;44276;49.534;6.378;2023-06-26T00:41:14;14.90;99.90
53776;DHT22;44276;49.534;6.378;2023-06-26T00:43:43;14.80;99.90
53776;DHT22;44276;49.534;6.378;2023-06-26T00:46:13;14.80;99.90
53776;DHT22;44276;49.534;6.378;2023-06-26T00:48:44;14.80;99.90
53776;DHT22;44276;49.534;6.378;2023-06-26T00:51:16;14.80;99.90
53776;DHT22;44276;49.534;6.378;2023-06-26T00:53:44;14.90;99.90
53776;DHT22;44276;49.534;6.378;2023-06-26T00:56:13;14.80;99.90
53776;DHT22;44276;49.534;6.378;2023-06-26T00:58:43;14.80;99.90
53776;DHT22;44276;49.534;6.378;2023-06-26T01:01:12;14.80;99.90
53776;DHT22;44276;49.534;6.378;2023-06-26T01:03:45;14.80;99.90
53776;DHT22;44276;49.534;6.378;2023-06-26T01:06:20;14.80;99.90
53776;DHT22;44276;49.534;6.378;2023-06-26T01:08:52;14.80;99.90
53776;DHT22;44276;49.534;6.378;2023-06-26T01:11:20;14.70;99.90
53776;DHT22;44276;49.534;6.378;2023-06-26T01:13:49;14.70;99.90
53776;DHT22;44276;49.534;6.378;2023-06-26T01:16:19;14.70;99.90
53776;DHT22;44276;49.534;6.378;2023-06-26T01:18:50;14.60;99.90
53776;DHT22;44276;49.534;6.378;2023-06-26T01:21:19;14.70;99.90
53776;DHT22;44276;49.534;6.378;2023-06-26T01:23:57;14.70;99.90
53776;DHT22;44276;49.534;6.378;2023-06-26T01:26:32;14.70;99.90
53776;DHT22;44276;49.534;6.378;2023-06-26T01:29:04;14.80;99.90
53776;DHT22;44276;49.534;6.378;2023-06-26T01:31:36;14.80;99.90
53776;DHT22;44276;49.534;6.378;2023-06-26T01:34:05;14.70;99.90
53776;DHT22;44276;49.534;6.378;2023-06-26T01:36:34;14.70;99.90
53776;DHT22;44276;49.534;6.378;2023-06-26T01:39:04;14.70;99.90
53776;DHT22;44276;49.534;6.378;2023-06-26T01:41:34;14.70;99.90
53776;DHT22;44276;49.534;6.378;2023-06-26T01:44:14;14.60;99.90
53776;DHT22;44276;49.534;6.378;2023-06-26T01:46:55;14.60;99.90
53776;DHT22;44276;49.534;6.378;2023-06-26T01:49:37;14.60;99.90
53776;DHT22;44276;49.534;6.378;2023-06-26T01:52:16;14.60;99.90
53776;DHT22;44276;49.534;6.378;2023-06-26T01:54:55;14.50;99.90
53776;DHT22;44276;49.534;6.378;2023-06-26T01:57:29;14.50;99.90
53776;DHT22;44276;49.534;6.378;2023-06-26T02:00:00;14.40;99.90
53776;DHT22;44276;49.534;6.378;2023-06-26T02:02:29;14.40;99.90
53776;DHT22;44276;49.534;6.378;2023-06-26T02:04:58;14.30;99.90
53776;DHT22;44276;49.534;6.378;2023-06-26T02:07:26;14.40;99.90
53776;DHT22;44276;49.534;6.378;2023-06-26T02:09:54;14.40;99.90
53776;DHT22;44276;49.534;6.378;2023-06-26T02:12:23;14.50;99.90
53776;DHT22;44276;49.534;6.378;2023-06-26T02:14:53;14.50;99.90
53776;DHT22;44276;49.534;6.378;2023-06-26T02:17:21;14.50;99.90
53776;DHT22;44276;49.534;6.378;2023-06-26T02:19:49;14.50;99.90
53776;DHT22;44276;49.534;6.378;2023-06-26T02:22:18;14.50;99.90
53776;DHT22;44276;49.534;6.378;2023-06-26T02:24:47;14.60;99.90
53776;DHT22;44276;49.534;6.378;2023-06-26T02:27:16;14.60;99.90
53776;DHT22;44276;49.534;6.378;2023-06-26T02:29:44;14.50;99.90
53776;DHT22;44276;49.534;6.378;2023-06-26T02:32:14;14.50;99.90
53776;DHT22;44276;49.534;6.378;2023-06-26T02:34:43;14.40;99.90
53776;DHT22;44276;49.534;6.378;2023-06-26T02:37:11;14.40;99.90
53776;DHT22;44276;49.534;6.378;2023-06-26T02:39:39;14.30;99.90
53776;DHT22;44276;49.534;6.378;2023-06-26T02:42:08;14.20;99.90
53776;DHT22;44276;49.534;6.378;2023-06-26T02:44:36;14.20;99.90
53776;DHT22;44276;49.534;6.378;2023-06-26T02:47:05;14.20;99.90
53776;DHT22;44276;49.534;6.378;2023-06-26T02:49:35;14.20;99.90
53776;DHT22;44276;49.534;6.378;2023-06-26T02:52:04;14.20;99.90
53776;DHT22;44276;49.534;6.378;2023-06-26T02:54:33;14.20;99.90
53776;DHT22;44276;49.534;6.378;2023-06-26T02:57:01;14.00;99.90
53776;DHT22;44276;49.534;6.378;2023-06-26T02:59:29;14.00;99.90
53776;DHT22;44276;49.534;6.378;2023-06-26T03:01:58;14.10;99.90
53776;DHT22;44276;49.534;6.378;2023-06-26T03:04:26;14.10;99.90
53776;DHT22;44276;49.534;6.378;2023-06-26T03:06:56;14.10;99.90
53776;DHT22;44276;49.534;6.378;2023-06-26T03:09:25;14.00;99.90
53776;DHT22;44276;49.534;6.378;2023-06-26T03:11:53;14.00;99.90
53776;DHT22;44276;49.534;6.378;2023-06-26T03:14:22;14.00;99.90
53776;DHT22;44276;49.534;6.378;2023-06-26T03:16:50;13.90;99.90
53776;DHT22;44276;49.534;6.378;2023-06-26T03:19:19;14.00;99.90
53776;DHT22;44276;49.534;6.378;2023-06-26T03:21:48;14.00;99.90
53776;DHT22;44276;49.534;6.378;2023-06-26T03:24:17;13.90;99.90
53776;DHT22;44276;49.534;6.378;2023-06-26T03:26:46;13.90;99.90
53776;DHT22;44276;49.534;6.378;2023-06-26T03:29:14;13.90;99.90
53776;DHT22;44276;49.534;6.378;2023-06-26T03:31:43;14.00;99.90
53776;DHT22;44276;49.534;6.378;2023-06-26T03:34:11;14.10;99.90
53776;DHT22;44276;49.534;6.378;2023-06-26T03:36:39;14.00;99.90
53776;DHT22;44276;49.534;6.378;2023-06-26T03:39:08;14.10;99.90
53776;DHT22;44276;49.534;6.378;2023-06-26T03:41:37;14.00;99.90
53776;DHT22;44276;49.534;6.378;2023-06-26T03:44:06;14.00;99.90
53776;DHT22;44276;49.534;6.378;2023-06-26T03:46:34;14.00;99.90
53776;DHT22;44276;49.534;6.378;2023-06-26T03:49:05;14.10;99.90
53776;DHT22;44276;49.534;6.378;2023-06-26T03:51:36;14.20;99.90
53776;DHT22;44276;49.534;6.378;2023-06-26T03:54:05;14.40;99.90
53776;DHT22;44276;49.534;6.378;2023-06-26T03:56:33;14.40;99.90
53776;DHT22;44276;49.534;6.378;2023-06-26T03:59:03;14.50;99.90
53776;DHT22;44276;49.534;6.378;2023-06-26T04:01:31;14.60;99.90
53776;DHT22;44276;49.534;6.378;2023-06-26T04:04:00;14.80;99.90
53776;DHT22;44276;49.534;6.378;2023-06-26T04:06:28;14.90;99.90
53776;DHT22;44276;49.534;6.378;2023-06-26T04:08:58;15.00;99.90
53776;DHT22;44276;49.534;6.378;2023-06-26T04:11:26;15.20;99.90
53776;DHT22;44276;49.534;6.378;2023-06-26T04:13:55;15.40;99.90
53776;DHT22;44276;49.534;6.378;2023-06-26T04:16:25;15.50;99.90
53776;DHT22;44276;49.534;6.378;2023-06-26T04:18:53;15.60;99.90
53776;DHT22;44276;49.534;6.378;2023-06-26T04:21:23;15.80;99.90
53776;DHT22;44276;49.534;6.378;2023-06-26T04:23:52;16.00;99.90
53776;DHT22;44276;49.534;6.378;2023-06-26T04:26:20;16.20;99.90
53776;DHT22;44276;49.534;6.378;2023-06-26T04:28:48;16.40;99.90
53776;DHT22;44276;49.534;6.378;2023-06-26T04:31:17;16.60;99.90
53776;DHT22;44276;49.534;6.378;2023-06-26T04:33:46;16.70;99.90
53776;DHT22;44276;49.534;6.378;2023-06-26T04:36:17;16.80;99.90
53776;DHT22;44276;49.534;6.378;2023-06-26T04:38:46;17.00;99.90
53776;DHT22;44276;49.534;6.378;2023-06-26T04:41:14;17.00;99.90
53776;DHT22;44276;49.534;6.378;2023-06-26T04:43:42;17.10;99.90
53776;DHT22;44276;49.534;6.378;2023-06-26T04:46:11;17.20;99.90
53776;DHT22;44276;49.534;6.378;2023-06-26T04:48:39;17.30;99.90
53776;DHT22;44276;49.534;6.378;2023-06-26T04:51:09;17.40;99.90
53776;DHT22;44276;49.534;6.378;2023-06-26T04:53:37;17.70;99.90
53776;DHT22;44276;49.534;6.378;2023-06-26T04:56:05;17.90;99.90
53776;DHT22;44276;49.534;6.378;2023-06-26T04:58:33;18.20;99.90
53776;DHT22;44276;49.534;6.378;2023-06-26T05:01:01;18.50;99.90
53776;DHT22;44276;49.534;6.378;2023-06-26T05:03:33;18.80;99.90
53776;DHT22;44276;49.534;6.378;2023-06-26T05:06:02;19.00;99.90
53776;DHT22;44276;49.534;6.378;2023-06-26T05:08:37;19.30;99.90
53776;DHT22;44276;49.534;6.378;2023-06-26T05:11:05;19.40;99.90
53776;DHT22;44276;49.534;6.378;2023-06-26T05:13:33;19.50;99.90
53776;DHT22;44276;49.534;6.378;2023-06-26T05:16:01;19.70;99.90
53776;DHT22;44276;49.534;6.378;2023-06-26T05:18:29;20.00;99.90
53776;DHT22;44276;49.534;6.378;2023-06-26T05:20:58;20.30;99.90
53776;DHT22;44276;49.534;6.378;2023-06-26T05:23:27;20.70;99.90
53776;DHT22;44276;49.534;6.378;2023-06-26T05:26:01;21.70;98.30
53776;DHT22;44276;49.534;6.378;2023-06-26T05:28:30;22.90;75.30
53776;DHT22;44276;49.534;6.378;2023-06-26T05:30:59;23.40;57.30
53776;DHT22;44276;49.534;6.378;2023-06-26T05:33:28;24.20;53.70
53776;DHT22;44276;49.534;6.378;2023-06-26T05:35:57;24.60;48.40
53776;DHT22;44276;49.534;6.378;2023-06-26T05:38:28;25.50;45.60
53776;DHT22;44276;49.534;6.378;2023-06-26T05:40:56;26.40;40.40
53776;DHT22;44276;49.534;6.378;2023-06-26T05:43:27;27.40;33.20
53776;DHT22;44276;49.534;6.378;2023-06-26T05:45:56;27.70;29.70
53776;DHT22;44276;49.534;6.378;2023-06-26T05:48:24;27.40;29.20
53776;DHT22;44276;49.534;6.378;2023-06-26T05:50:53;27.00;30.80
53776;DHT22;44276;49.534;6.378;2023-06-26T05:53:22;27.00;29.90
53776;DHT22;44276;49.534;6.378;2023-06-26T05:55:51;26.60;31.20
53776;DHT22;44276;49.534;6.378;2023-06-26T05:58:20;26.80;31.40
53776;DHT22;44276;49.534;6.378;2023-06-26T06:00:52;27.20;29.90
53776;DHT22;44276;49.534;6.378;2023-06-26T06:03:20;27.30;28.10
53776;DHT22;44276;49.534;6.378;2023-06-26T06:05:49;26.10;28.50
53776;DHT22;44276;49.534;6.378;2023-06-26T06:08:17;25.80;29.90
53776;DHT22;44276;49.534;6.378;2023-06-26T06:10:45;25.60;29.70
53776;DHT22;44276;49.534;6.378;2023-06-26T06:13:13;26.00;28.50
53776;DHT22;44276;49.534;6.378;2023-06-26T06:15:41;26.00;29.00
53776;DHT22;44276;49.534;6.378;2023-06-26T06:18:11;26.90;26.70
53776;DHT22;44276;49.534;6.378;2023-06-26T06:20:39;27.70;25.90
53776;DHT22;44276;49.534;6.378;2023-06-26T06:23:07;29.10;23.30
53776;DHT22;44276;49.534;6.378;2023-06-26T06:25:35;30.30;20.10
53776;DHT22;44276;49.534;6.378;2023-06-26T06:28:04;29.60;20.60
53776;DHT22;44276;49.534;6.378;2023-06-26T06:30:32;27.80;22.20
53776;DHT22;44276;49.534;6.378;2023-06-26T06:33:13;26.40;24.10
53776;DHT22;44276;49.534;6.378;2023-06-26T06:35:41;26.10;25.60
53776;DHT22;44276;49.534;6.378;2023-06-26T06:38:09;26.40;25.70
53776;DHT22;44276;49.534;6.378;2023-06-26T06:40:37;26.40;25.30
53776;DHT22;44276;49.534;6.378;2023-06-26T06:43:06;26.00;25.50
53776;DHT22;44276;49.534;6.378;2023-06-26T06:45:34;25.50;26.10
53776;DHT22;44276;49.534;6.378;2023-06-26T06:48:04;26.20;26.10
53776;DHT22;44276;49.534;6.378;2023-06-26T06:50:34;27.40;22.90
53776;DHT22;44276;49.534;6.378;2023-06-26T06:53:02;28.20;21.20
53776;DHT22;44276;49.534;6.378;2023-06-26T06:55:31;28.70;19.20
53776;DHT22;44276;49.534;6.378;2023-06-26T06:57:59;28.80;18.40
53776;DHT22;44276;49.534;6.378;2023-06-26T07:00:30;28.60;18.40
53776;DHT22;44276;49.534;6.378;2023-06-26T07:02:58;28.20;19.10
53776;DHT22;44276;49.534;6.378;2023-06-26T07:05:27;28.90;19.00
53776;DHT22;44276;49.534;6.378;2023-06-26T07:07:56;30.00;17.70
53776;DHT22;44276;49.534;6.378;2023-06-26T07:10:28;30.50;16.90
53776;DHT22;44276;49.534;6.378;2023-06-26T07:12:56;30.90;15.60
53776;DHT22;44276;49.534;6.378;2023-06-26T07:15:24;30.90;15.50
53776;DHT22;44276;49.534;6.378;2023-06-26T07:17:53;31.20;14.60
53776;DHT22;44276;49.534;6.378;2023-06-26T07:20:22;30.30;15.60
53776;DHT22;44276;49.534;6.378;2023-06-26T07:22:50;29.20;17.00
53776;DHT22;44276;49.534;6.378;2023-06-26T07:25:20;28.90;16.80
53776;DHT22;44276;49.534;6.378;2023-06-26T07:27:48;29.20;16.40
53776;DHT22;44276;49.534;6.378;2023-06-26T07:30:16;29.40;16.80
53776;DHT22;44276;49.534;6.378;2023-06-26T07:32:45;29.00;17.10
53776;DHT22;44276;49.534;6.378;2023-06-26T07:35:13;28.90;16.60
53776;DHT22;44276;49.534;6.378;2023-06-26T07:37:42;29.40;17.00
53776;DHT22;44276;49.534;6.378;2023-06-26T07:40:11;29.90;15.80
53776;DHT22;44276;49.534;6.378;2023-06-26T07:42:40;29.50;16.70
53776;DHT22;44276;49.534;6.378;2023-06-26T07:45:09;30.60;15.50
53776;DHT22;44276;49.534;6.378;2023-06-26T07:47:39;31.50;14.30
53776;DHT22;44276;49.534;6.378;2023-06-26T07:50:08;31.60;14.30
53776;DHT22;44276;49.534;6.378;2023-06-26T07:52:39;31.50;13.70
53776;DHT22;44276;49.534;6.378;2023-06-26T07:55:07;32.40;13.10
53776;DHT22;44276;49.534;6.378;2023-06-26T07:57:36;33.30;12.50
53776;DHT22;44276;49.534;6.378;2023-06-26T08:00:06;34.00;12.10
53776;DHT22;44276;49.534;6.378;2023-06-26T08:02:35;34.80;10.50
53776;DHT22;44276;49.534;6.378;2023-06-26T08:05:04;35.30;8.90
53776;DHT22;44276;49.534;6.378;2023-06-26T08:07:33;34.90;9.60
53776;DHT22;44276;49.534;6.378;2023-06-26T08:10:01;34.60;9.90
53776;DHT22;44276;49.534;6.378;2023-06-26T08:12:29;34.50;10.00
53776;DHT22;44276;49.534;6.378;2023-06-26T08:14:57;34.70;10.10
53776;DHT22;44276;49.534;6.378;2023-06-26T08:17:26;34.50;10.30
53776;DHT22;44276;49.534;6.378;2023-06-26T08:19:56;34.80;10.20
53776;DHT22;44276;49.534;6.378;2023-06-26T08:22:24;34.90;11.00
53776;DHT22;44276;49.534;6.378;2023-06-26T08:24:52;34.00;12.80
53776;DHT22;44276;49.534;6.378;2023-06-26T08:27:20;34.30;11.60
53776;DHT22;44276;49.534;6.378;2023-06-26T08:29:49;32.80;13.90
53776;DHT22;44276;49.534;6.378;2023-06-26T08:32:17;31.70;15.20
53776;DHT22;44276;49.534;6.378;2023-06-26T08:34:47;31.20;16.20
53776;DHT22;44276;49.534;6.378;2023-06-26T08:37:15;31.00;16.60
53776;DHT22;44276;49.534;6.378;2023-06-26T08:39:43;31.10;16.60
53776;DHT22;44276;49.534;6.378;2023-06-26T08:42:11;31.70;16.10
53776;DHT22;44276;49.534;6.378;2023-06-26T08:44:40;32.30;15.90
53776;DHT22;44276;49.534;6.378;2023-06-26T08:47:26;32.70;15.30
53776;DHT22;44276;49.534;6.378;2023-06-26T08:50:03;32.60;14.60
53776;DHT22;44276;49.534;6.378;2023-06-26T08:52:39;31.60;16.30
53776;DHT22;44276;49.534;6.378;2023-06-26T08:55:12;31.40;17.20
53776;DHT22;44276;49.534;6.378;2023-06-26T08:57:44;32.50;15.60
53776;DHT22;44276;49.534;6.378;2023-06-26T09:00:14;33.00;15.20
53776;DHT22;44276;49.534;6.378;2023-06-26T09:02:44;32.40;14.50
53776;DHT22;44276;49.534;6.378;2023-06-26T09:05:14;31.70;14.80
53776;DHT22;44276;49.534;6.378;2023-06-26T09:07:42;31.40;16.10
53776;DHT22;44276;49.534;6.378;2023-06-26T09:10:11;31.80;16.30
53776;DHT22;44276;49.534;6.378;2023-06-26T09:12:40;31.90;14.90
53776;DHT22;44276;49.534;6.378;2023-06-26T09:15:08;31.40;14.80
53776;DHT22;44276;49.534;6.378;2023-06-26T09:17:39;31.50;14.10
53776;DHT22;44276;49.534;6.378;2023-06-26T09:20:09;31.20;14.70
53776;DHT22;44276;49.534;6.378;2023-06-26T09:22:43;30.90;14.00
53776;DHT22;44276;49.534;6.378;2023-06-26T09:25:16;30.40;15.30
53776;DHT22;44276;49.534;6.378;2023-06-26T09:27:45;30.40;16.40
53776;DHT22;44276;49.534;6.378;2023-06-26T09:30:17;31.20;14.70
53776;DHT22;44276;49.534;6.378;2023-06-26T09:32:45;32.10;14.40
53776;DHT22;44276;49.534;6.378;2023-06-26T09:35:14;33.30;12.00
53776;DHT22;44276;49.534;6.378;2023-06-26T09:37:44;34.30;11.60
53776;DHT22;44276;49.534;6.378;2023-06-26T09:40:14;33.80;12.10
53776;DHT22;44276;49.534;6.378;2023-06-26T09:42:43;32.80;14.30
53776;DHT22;44276;49.534;6.378;2023-06-26T09:45:18;33.40;11.90
53776;DHT22;44276;49.534;6.378;2023-06-26T09:47:47;34.30;12.70
53776;DHT22;44276;49.534;6.378;2023-06-26T09:50:21;34.40;10.90
53776;DHT22;44276;49.534;6.378;2023-06-26T09:52:53;33.10;12.20
53776;DHT22;44276;49.534;6.378;2023-06-26T09:55:22;32.20;12.40
53776;DHT22;44276;49.534;6.378;2023-06-26T09:57:51;31.30;13.30
53776;DHT22;44276;49.534;6.378;2023-06-26T10:00:24;31.20;13.40
53776;DHT22;44276;49.534;6.378;2023-06-26T10:02:52;30.60;15.80
53776;DHT22;44276;49.534;6.378;2023-06-26T10:05:20;30.90;14.40
53776;DHT22;44276;49.534;6.378;2023-06-26T10:07:48;31.20;14.40
53776;DHT22;44276;49.534;6.378;2023-06-26T10:10:19;31.30;14.40
53776;DHT22;44276;49.534;6.378;2023-06-26T10:12:57;30.80;14.20
53776;DHT22;44276;49.534;6.378;2023-06-26T10:15:29;30.90;15.30
53776;DHT22;44276;49.534;6.378;2023-06-26T10:17:58;31.70;12.80
53776;DHT22;44276;49.534;6.378;2023-06-26T10:20:27;31.50;13.40
53776;DHT22;44276;49.534;6.378;2023-06-26T10:22:58;31.20;14.00
53776;DHT22;44276;49.534;6.378;2023-06-26T10:25:31;31.90;13.40
53776;DHT22;44276;49.534;6.378;2023-06-26T10:28:01;32.60;12.30
53776;DHT22;44276;49.534;6.378;2023-06-26T10:30:33;32.20;11.40
53776;DHT22;44276;49.534;6.378;2023-06-26T10:33:05;31.90;12.30
53776;DHT22;44276;49.534;6.378;2023-06-26T10:35:42;32.20;12.90
53776;DHT22;44276;49.534;6.378;2023-06-26T10:38:10;32.90;12.30
53776;DHT22;44276;49.534;6.378;2023-06-26T10:40:44;32.90;11.40
53776;DHT22;44276;49.534;6.378;2023-06-26T10:43:16;32.00;12.60
53776;DHT22;44276;49.534;6.378;2023-06-26T10:45:46;31.80;12.80
53776;DHT22;44276;49.534;6.378;2023-06-26T10:48:19;31.70;13.00
53776;DHT22;44276;49.534;6.378;2023-06-26T10:50:48;31.90;13.50
53776;DHT22;44276;49.534;6.378;2023-06-26T10:53:23;32.20;12.70
53776;DHT22;44276;49.534;6.378;2023-06-26T10:56:00;31.60;13.70
53776;DHT22;44276;49.534;6.378;2023-06-26T10:58:34;31.70;12.60
53776;DHT22;44276;49.534;6.378;2023-06-26T11:01:21;32.20;11.50
53776;DHT22;44276;49.534;6.378;2023-06-26T11:04:03;33.30;10.10
53776;DHT22;44276;49.534;6.378;2023-06-26T11:06:33;32.50;10.00
53776;DHT22;44276;49.534;6.378;2023-06-26T11:09:10;32.00;11.00
53776;DHT22;44276;49.534;6.378;2023-06-26T11:11:59;32.00;10.00
53776;DHT22;44276;49.534;6.378;2023-06-26T11:14:32;32.40;10.70
53776;DHT22;44276;49.534;6.378;2023-06-26T11:17:04;32.40;10.20
53776;DHT22;44276;49.534;6.378;2023-06-26T11:19:33;32.40;11.90
53776;DHT22;44276;49.534;6.378;2023-06-26T11:22:05;32.60;10.40
53776;DHT22;44276;49.534;6.378;2023-06-26T11:24:33;31.30;11.20
53776;DHT22;44276;49.534;6.378;2023-06-26T11:27:06;30.60;12.50
53776;DHT22;44276;49.534;6.378;2023-06-26T11:29:34;31.10;12.10
53776;DHT22;44276;49.534;6.378;2023-06-26T11:32:05;31.90;11.00
53776;DHT22;44276;49.534;6.378;2023-06-26T11:34:34;31.50;10.40
53776;DHT22;44276;49.534;6.378;2023-06-26T11:37:04;30.70;11.20
53776;DHT22;44276;49.534;6.378;2023-06-26T11:39:33;30.90;11.20
53776;DHT22;44276;49.534;6.378;2023-06-26T11:42:02;31.80;10.90
53776;DHT22;44276;49.534;6.378;2023-06-26T11:44:32;32.50;8.70
53776;DHT22;44276;49.534;6.378;2023-06-26T11:47:12;31.70;10.60
53776;DHT22;44276;49.534;6.378;2023-06-26T11:49:42;32.20;9.40
53776;DHT22;44276;49.534;6.378;2023-06-26T11:52:11;32.40;9.50
53776;DHT22;44276;49.534;6.378;2023-06-26T11:54:40;32.20;9.30
53776;DHT22;44276;49.534;6.378;2023-06-26T11:57:13;32.00;8.50
53776;DHT22;44276;49.534;6.378;2023-06-26T11:59:44;30.90;8.60
53776;DHT22;44276;49.534;6.378;2023-06-26T12:02:13;31.20;10.40
53776;DHT22;44276;49.534;6.378;2023-06-26T12:04:43;31.70;8.50
53776;DHT22;44276;49.534;6.378;2023-06-26T12:07:13;31.40;9.90
53776;DHT22;44276;49.534;6.378;2023-06-26T12:09:43;31.20;9.50
53776;DHT22;44276;49.534;6.378;2023-06-26T12:12:17;31.70;10.70
53776;DHT22;44276;49.534;6.378;2023-06-26T12:14:46;32.40;8.70
53776;DHT22;44276;49.534;6.378;2023-06-26T12:17:14;31.80;10.00
53776;DHT22;44276;49.534;6.378;2023-06-26T12:19:44;31.40;10.80
53776;DHT22;44276;49.534;6.378;2023-06-26T12:22:15;30.60;11.20
53776;DHT22;44276;49.534;6.378;2023-06-26T12:24:46;30.60;11.60
53776;DHT22;44276;49.534;6.378;2023-06-26T12:27:18;31.00;10.60
53776;DHT22;44276;49.534;6.378;2023-06-26T12:29:51;31.00;10.40
53776;DHT22;44276;49.534;6.378;2023-06-26T12:32:23;31.10;10.50
53776;DHT22;44276;49.534;6.378;2023-06-26T12:34:52;30.90;10.50
53776;DHT22;44276;49.534;6.378;2023-06-26T12:37:20;30.60;12.10
53776;DHT22;44276;49.534;6.378;2023-06-26T12:39:50;30.60;11.70
53776;DHT22;44276;49.534;6.378;2023-06-26T12:42:22;30.90;10.40
53776;DHT22;44276;49.534;6.378;2023-06-26T12:44:52;30.70;11.10
53776;DHT22;44276;49.534;6.378;2023-06-26T12:47:25;30.60;11.30
53776;DHT22;44276;49.534;6.378;2023-06-26T12:49:55;30.20;11.00
53776;DHT22;44276;49.534;6.378;2023-06-26T12:52:24;29.50;11.90
53776;DHT22;44276;49.534;6.378;2023-06-26T12:54:54;29.50;11.70
53776;DHT22;44276;49.534;6.378;2023-06-26T12:57:25;29.80;11.20
53776;DHT22;44276;49.534;6.378;2023-06-26T12:59:53;29.80;12.40
53776;DHT22;44276;49.534;6.378;2023-06-26T13:02:21;30.40;12.00
53776;DHT22;44276;49.534;6.378;2023-06-26T13:04:50;30.10;10.90
53776;DHT22;44276;49.534;6.378;2023-06-26T13:07:18;29.20;14.00
53776;DHT22;44276;49.534;6.378;2023-06-26T13:09:46;29.40;12.50
53776;DHT22;44276;49.534;6.378;2023-06-26T13:12:15;30.20;11.80
53776;DHT22;44276;49.534;6.378;2023-06-26T13:14:45;30.40;10.80
53776;DHT22;44276;49.534;6.378;2023-06-26T13:17:13;30.20;11.00
53776;DHT22;44276;49.534;6.378;2023-06-26T13:19:41;30.00;11.20
53776;DHT22;44276;49.534;6.378;2023-06-26T13:22:10;29.70;11.40
53776;DHT22;44276;49.534;6.378;2023-06-26T13:24:38;29.70;11.80
53776;DHT22;44276;49.534;6.378;2023-06-26T13:27:06;30.50;12.00
53776;DHT22;44276;49.534;6.378;2023-06-26T13:29:34;30.90;10.90
53776;DHT22;44276;49.534;6.378;2023-06-26T13:32:05;30.80;11.20
53776;DHT22;44276;49.534;6.378;2023-06-26T13:34:33;30.60;11.00
53776;DHT22;44276;49.534;6.378;2023-06-26T13:37:02;30.30;11.10
53776;DHT22;44276;49.534;6.378;2023-06-26T13:39:30;30.50;11.20
53776;DHT22;44276;49.534;6.378;2023-06-26T13:41:58;30.70;10.40
53776;DHT22;44276;49.534;6.378;2023-06-26T13:44:27;30.60;11.30
53776;DHT22;44276;49.534;6.378;2023-06-26T13:47:09;29.40;12.00
53776;DHT22;44276;49.534;6.378;2023-06-26T13:49:40;28.50;13.10
53776;DHT22;44276;49.534;6.378;2023-06-26T13:52:08;28.30;12.40
53776;DHT22;44276;49.534;6.378;2023-06-26T13:54:37;28.10;13.10
53776;DHT22;44276;49.534;6.378;2023-06-26T13:57:07;28.30;13.00
53776;DHT22;44276;49.534;6.378;2023-06-26T13:59:37;28.80;12.60
53776;DHT22;44276;49.534;6.378;2023-06-26T14:02:08;29.10;12.50
53776;DHT22;44276;49.534;6.378;2023-06-26T14:04:36;29.20;12.60
53776;DHT22;44276;49.534;6.378;2023-06-26T14:07:05;29.00;12.20
53776;DHT22;44276;49.534;6.378;2023-06-26T14:09:34;28.80;13.60
53776;DHT22;44276;49.534;6.378;2023-06-26T14:12:02;29.50;12.90
53776;DHT22;44276;49.534;6.378;2023-06-26T14:14:31;29.90;12.10
53776;DHT22;44276;49.534;6.378;2023-06-26T14:16:59;29.30;12.80
53776;DHT22;44276;49.534;6.378;2023-06-26T14:19:28;29.00;13.00
53776;DHT22;44276;49.534;6.378;2023-06-26T14:21:56;29.20;13.50
53776;DHT22;44276;49.534;6.378;2023-06-26T14:24:26;29.40;13.50
53776;DHT22;44276;49.534;6.378;2023-06-26T14:26:54;29.60;12.80
53776;DHT22;44276;49.534;6.378;2023-06-26T14:29:22;29.50;12.80
53776;DHT22;44276;49.534;6.378;2023-06-26T14:31:50;29.50;12.70
53776;DHT22;44276;49.534;6.378;2023-06-26T14:34:22;29.50;12.40
53776;DHT22;44276;49.534;6.378;2023-06-26T14:36:51;29.20;12.50
53776;DHT22;44276;49.534;6.378;2023-06-26T14:39:19;29.00;13.90
53776;DHT22;44276;49.534;6.378;2023-06-26T14:41:48;28.90;12.80
53776;DHT22;44276;49.534;6.378;2023-06-26T14:44:17;28.70;13.20
53776;DHT22;44276;49.534;6.378;2023-06-26T14:46:46;28.90;13.30
53776;DHT22;44276;49.534;6.378;2023-06-26T14:49:14;29.20;13.40
53776;DHT22;44276;49.534;6.378;2023-06-26T14:51:42;29.30;12.70
53776;DHT22;44276;49.534;6.378;2023-06-26T14:54:11;29.10;12.90
53776;DHT22;44276;49.534;6.378;2023-06-26T14:56:39;29.50;12.30
53776;DHT22;44276;49.534;6.378;2023-06-26T14:59:07;29.40;12.80
53776;DHT22;44276;49.534;6.378;2023-06-26T15:01:35;28.90;13.50
53776;DHT22;44276;49.534;6.378;2023-06-26T15:04:04;28.80;13.20
53776;DHT22;44276;49.534;6.378;2023-06-26T15:06:32;28.30;13.30
53776;DHT22;44276;49.534;6.378;2023-06-26T15:09:01;28.00;13.90
53776;DHT22;44276;49.534;6.378;2023-06-26T15:11:31;27.80;14.80
53776;DHT22;44276;49.534;6.378;2023-06-26T15:13:59;27.50;15.00
53776;DHT22;44276;49.534;6.378;2023-06-26T15:16:27;27.30;15.50
53776;DHT22;44276;49.534;6.378;2023-06-26T15:18:55;27.60;14.80
53776;DHT22;44276;49.534;6.378;2023-06-26T15:21:23;28.00;15.00
53776;DHT22;44276;49.534;6.378;2023-06-26T15:23:51;28.40;14.30
53776;DHT22;44276;49.534;6.378;2023-06-26T15:26:19;28.20;14.30
53776;DHT22;44276;49.534;6.378;2023-06-26T15:28:49;28.20;13.90
53776;DHT22;44276;49.534;6.378;2023-06-26T15:31:17;28.40;13.90
53776;DHT22;44276;49.534;6.378;2023-06-26T15:33:45;28.50;14.90
53776;DHT22;44276;49.534;6.378;2023-06-26T15:36:13;28.90;14.00
53776;DHT22;44276;49.534;6.378;2023-06-26T15:38:42;28.40;13.20
53776;DHT22;44276;49.534;6.378;2023-06-26T15:41:10;27.40;14.70
53776;DHT22;44276;49.534;6.378;2023-06-26T15:43:38;27.00;16.00
53776;DHT22;44276;49.534;6.378;2023-06-26T15:46:09;26.80;16.60
53776;DHT22;44276;49.534;6.378;2023-06-26T15:48:37;26.60;16.10